CSUN Campus Station - National Weather Service Data Page - PST Time




                Date      RH     Dew  Seasonal     Current   Max Air   Min Air    Wind    Wind    Wind    Gust     Bar    Rain
                Time       %   Point      Rain    Air Temp     Since     Since   Speed    Gust     Dir     Dir   Press   Total
                               Deg F    Inches       Deg F  Midnight  Midnight     MPH     MPH                      mb  Inches
------------------------------------------------------------------------------------------------------------------------------
    01/12/2017 00:00      87    47.0      8.69        50.9      64.7      50.5       2       3      53      58    1014    0.00
    01/12/2017 00:10      87    47.0      8.69        50.9      51.0      50.7       0       2      20      25    1014    0.00
    01/12/2017 00:20      87    47.2      8.69        51.0      51.2      50.7       0       1       0      24    1014    0.00
    01/12/2017 00:30      87    47.2      8.69        51.0      51.2      50.7       0       1      72      99    1014    0.00
    01/12/2017 00:40      87    47.4      8.69        51.1      51.2      50.7       0       2      74      76    1014    0.00
    01/12/2017 00:50      87    47.5      8.69        51.2      51.3      50.7       1       3      62      50    1014    0.00
    01/12/2017 01:00      87    47.6      8.69        51.3      51.5      50.7       0       1      58      54    1014    0.00
    01/12/2017 01:10      87    47.8      8.69        51.4      51.8      50.7       0       2      72      69    1014    0.00
    01/12/2017 01:20      88    48.0      8.69        51.6      51.9      50.7       1       3      89      88    1014    0.00
    01/12/2017 01:30      88    48.3      8.69        51.8      52.0      50.7       0       3     105     100    1014    0.00
    01/12/2017 01:40      88    48.4      8.69        51.9      52.2      50.7       1       4     101      84    1014    0.00
    01/12/2017 01:50      88    48.5      8.69        52.0      52.2      50.7       0       3     137     124    1014    0.00
    01/12/2017 02:00      88    48.5      8.69        52.0      52.2      50.7       0       2     108      85    1014    0.00
    01/12/2017 02:10      88    48.6      8.69        52.1      52.3      50.7       0       4     112      69    1013    0.00
    01/12/2017 02:20      88    48.6      8.69        52.1      52.3      50.7       2       4     105     105    1013    0.00
    01/12/2017 02:30      88    48.6      8.69        52.1      52.3      50.7       2       4     123      83    1013    0.00
    01/12/2017 02:40      88    48.7      8.69        52.1      52.3      50.7       2       6     116      85    1013    0.00
    01/12/2017 02:50      88    48.6      8.70        52.1      52.3      50.7       2       5     116      91    1013    0.01
    01/12/2017 03:00      88    48.6      8.71        51.9      52.3      50.7       2       7     114     131    1013    0.01
    01/12/2017 03:10      89    48.5      8.71        51.8      52.3      50.7       2       4     118     108    1013    0.00
    01/12/2017 03:20      89    48.4      8.71        51.6      52.3      50.7       2       6     109     100    1012    0.00
    01/12/2017 03:30      89    48.4      8.74        51.5      52.3      50.7       3       7     119     126    1012    0.03
    01/12/2017 03:40      89    48.3      8.75        51.3      52.3      50.7       2       5     131     151    1012    0.01
    01/12/2017 03:50      90    48.3      8.78        51.3      52.3      50.7       2       6     142     161    1012    0.03
    01/12/2017 04:00      90    48.3      8.80        51.2      52.3      50.7       2       5     123     121    1012    0.02
    01/12/2017 04:10      90    48.3      8.82        51.2      52.3      50.7       1       4     119     130    1012    0.02
    01/12/2017 04:20      90    48.3      8.83        51.2      52.3      50.7       3       6     117     158    1012    0.01
    01/12/2017 04:30      90    48.4      8.84        51.2      52.3      50.7       3       6     140     112    1012    0.01
    01/12/2017 04:40      90    48.5      8.85        51.3      52.3      50.7       3       6     161     157    1012    0.01
    01/12/2017 04:50      90    48.6      8.88        51.3      52.3      50.7       3       5     175     184    1012    0.03
    01/12/2017 05:00      91    48.6      8.91        51.3      52.3      50.7       3       5     159     159    1012    0.03
    01/12/2017 05:10      91    48.6      8.92        51.3      52.3      50.7       2       5     143     179    1012    0.01
    01/12/2017 05:20      91    48.4      8.94        51.0      52.3      50.7       2       5     132     129    1012    0.02
    01/12/2017 05:30      91    48.2      8.98        50.9      52.3      50.7       0       3     153     164    1012    0.04
    01/12/2017 05:40      91    48.2      8.98        50.8      52.3      50.7       2       3      98      74    1012    0.00
    01/12/2017 05:50      91    48.3      8.98        50.9      52.3      50.7       0       2     153     166    1012    0.00
    01/12/2017 06:00      91    48.2      8.98        50.8      52.3      50.6       0       1     277     276    1012    0.00
    01/12/2017 06:10      91    48.2      8.98        50.8      52.3      50.6       0       1      49      47    1012    0.00
    01/12/2017 06:20      91    48.4      8.98        51.0      52.3      50.6       0       2      78      84    1012    0.00
    01/12/2017 06:30      91    48.4      8.99        51.0      52.3      50.6       0       1     133     150    1012    0.01
    01/12/2017 06:40      91    48.4      9.00        51.0      52.3      50.6       0       2     174     151    1012    0.01
    01/12/2017 06:50      91    48.4      9.01        51.0      52.3      50.6       0       3     202     188    1012    0.01
    01/12/2017 07:00      91    48.3      9.02        50.9      52.3      50.6       0       2     208     204    1012    0.01
    01/12/2017 07:10      91    48.2      9.02        50.7      52.3      50.5       0       0     178     166    1012    0.00
    01/12/2017 07:20      91    48.2      9.02        50.7      52.3      50.5       0       1     103      87    1012    0.00
    01/12/2017 07:30      91    48.4      9.02        50.9      52.3      50.5       1       2      93      91    1012    0.00
    01/12/2017 07:40      91    48.5      9.03        51.0      52.3      50.5       2       3      77      73    1012    0.01
    01/12/2017 07:50      91    48.5      9.03        51.0      52.3      50.5       2       3      86      71    1012    0.00
    01/12/2017 08:00      91    48.6      9.03        51.1      52.3      50.5       1       2      86     109    1013    0.00
    01/12/2017 08:10      91    48.5      9.03        51.1      52.3      50.5       2       6      90      69    1013    0.00
    01/12/2017 08:20      91    48.3      9.03        50.8      52.3      50.5       2       7     100      97    1013    0.00
    01/12/2017 08:30      91    48.2      9.03        50.8      52.3      50.5       3       7      99      89    1013    0.00
    01/12/2017 08:40      91    48.4      9.03        50.9      52.3      50.5       3       8      97      84    1013    0.00
    01/12/2017 08:50      91    48.5      9.03        51.0      52.3      50.5       2       6     106     127    1013    0.00
    01/12/2017 09:00      91    48.5      9.03        51.0      52.3      50.5       3       7     112     140    1013    0.00
    01/12/2017 09:10      91    48.8      9.03        51.3      52.3      50.5       2       7     104      85    1013    0.00
    01/12/2017 09:20      91    49.0      9.03        51.5      52.3      50.5       3       6     111     126    1013    0.00
    01/12/2017 09:30      91    49.1      9.03        51.6      52.3      50.5       2       5     110      90    1013    0.00
    01/12/2017 09:40      91    49.2      9.03        51.7      52.3      50.5       3       6     104     105    1013    0.00
    01/12/2017 09:50      91    49.0      9.03        51.5      52.3      50.5       3       7     102     103    1013    0.00
    01/12/2017 10:00      91    48.9      9.03        51.5      52.3      50.5       3       6      95     109    1013    0.00
    01/12/2017 10:10      91    49.0      9.03        51.5      52.3      50.5       2       6     100     118    1013    0.00
    01/12/2017 10:20      91    49.0      9.04        51.5      52.3      50.5       3       8     103      94    1013    0.01
    01/12/2017 10:30      91    48.8      9.05        51.4      52.3      50.5       3       7     103      90    1013    0.01
    01/12/2017 10:40      91    48.8      9.05        51.4      52.3      50.5       4       9     120     146    1013    0.00
    01/12/2017 10:50      91    48.9      9.05        51.5      52.3      50.5       3       7     128     132    1013    0.00
    01/12/2017 11:00      91    49.1      9.06        51.6      52.3      50.5       4       8     143      98    1013    0.01
    01/12/2017 11:10      91    49.2      9.12        51.8      52.3      50.5       3       5     146     179    1013    0.06
    01/12/2017 11:20      91    49.1      9.15        51.7      52.3      50.5       3       6     171     181    1013    0.03
    01/12/2017 11:30      91    49.1      9.18        51.6      52.3      50.5       3       7     154     199    1013    0.03
    01/12/2017 11:40      91    49.3      9.19        51.8      52.3      50.5       3       5     189     174    1013    0.01
    01/12/2017 11:50      91    49.5      9.20        52.0      52.3      50.5       2       5     215     260    1013    0.01
    01/12/2017 12:00      91    49.4      9.21        52.0      52.3      50.5       3       6     265     236    1013    0.01
    01/12/2017 12:10      90    49.0      9.22        51.7      52.3      50.5       2       4     271     260    1012    0.01
    01/12/2017 12:20      90    48.5      9.23        51.3      52.3      50.5       2       4     277     300    1012    0.01
    01/12/2017 12:30      90    48.2      9.24        51.0      52.3      50.5       1       3     269     249    1012    0.01
    01/12/2017 12:40      90    48.2      9.25        51.1      52.3      50.5       0       1     225     258    1012    0.01
    01/12/2017 12:50      90    48.2      9.26        51.0      52.3      50.5       0       1     253     244    1012    0.01
    01/12/2017 13:00      90    48.2      9.26        51.1      52.3      50.5       0       2     276     305    1012    0.00
    01/12/2017 13:10      90    48.3      9.27        51.2      52.3      50.5       0       0     238     240    1012    0.01
    01/12/2017 13:20      90    48.7      9.27        51.6      52.3      50.5       0       1     194     194    1012    0.00
    01/12/2017 13:30      89    48.1      9.27        51.1      52.3      50.5       0       0      51      51    1012    0.00
    01/12/2017 13:40      90    48.0      9.28        51.0      52.3      50.5       0       0      53      44    1012    0.01
    01/12/2017 13:50      89    48.4      9.28        51.4      52.3      50.5       0       2      68      50    1012    0.00
    01/12/2017 14:00      89    48.4      9.28        51.5      52.3      50.5       2       3      78      82    1011    0.00
    01/12/2017 14:10      89    48.7      9.28        51.8      52.3      50.5       0       3      72      58    1012    0.00
    01/12/2017 14:20      89    48.5      9.28        51.6      52.3      50.5       2       4      92     110    1012    0.00
    01/12/2017 14:30      89    48.5      9.28        51.6      52.3      50.5       2       4      92      96    1012    0.00
    01/12/2017 14:40      89    48.5      9.28        51.7      52.3      50.5       2       4     100      78    1012    0.00
    01/12/2017 14:50      88    48.6      9.28        51.9      52.3      50.5       3       5      88      87    1012    0.00
    01/12/2017 15:00      88    48.6      9.28        52.0      52.4      50.5       2       4      87      95    1012    0.00
    01/12/2017 15:10      87    48.6      9.28        52.2      52.5      50.5       2       5      76      97    1012    0.00
    01/12/2017 15:20      86    48.4      9.28        52.3      52.5      50.5       3       6      59      87    1012    0.00
    01/12/2017 15:30      86    48.5      9.28        52.5      52.8      50.5       2       6     114     184    1012    0.00
    01/12/2017 15:40      86    48.5      9.28        52.6      52.8      50.5       4       8     158     156    1012    0.00
    01/12/2017 15:50      86    48.5      9.28        52.7      52.9      50.5       2       5     134     152    1012    0.00
    01/12/2017 16:00      86    48.6      9.28        52.6      53.0      50.5       2       4     135      80    1012    0.00
    01/12/2017 16:10      86    48.4      9.29        52.5      53.0      50.5       2       5     120     145    1012    0.01
    01/12/2017 16:20      86    48.0      9.29        52.1      53.0      50.5       3       7     137     141    1012    0.00
    01/12/2017 16:30      85    47.8      9.29        52.0      53.0      50.5       3       6     156     175    1012    0.00
    01/12/2017 16:40      84    47.5      9.29        51.9      53.0      50.5       3       6     148     142    1012    0.00
    01/12/2017 16:50      85    47.2      9.29        51.7      53.0      50.5       3       6     137     157    1012    0.00
    01/12/2017 17:00      85    47.2      9.29        51.6      53.0      50.5       2       6     133     146    1012    0.00
    01/12/2017 17:10      86    47.2      9.29        51.4      53.0      50.5       2       5     138     151    1012    0.00
    01/12/2017 17:20      86    47.1      9.29        51.2      53.0      50.5       2       5     138     144    1012    0.00
    01/12/2017 17:30      86    47.1      9.31        51.1      53.0      50.5       2       4     129     120    1012    0.02
    01/12/2017 17:40      87    47.0      9.32        50.9      53.0      50.5       1       4     118     137    1012    0.01
    01/12/2017 17:50      87    47.1      9.32        50.8      53.0      50.5       1       4     131     138    1012    0.00
    01/12/2017 18:00      88    47.0      9.32        50.6      53.0      50.4       0       2     135     125    1012    0.00
    01/12/2017 18:10      88    47.0      9.32        50.5      53.0      50.3       0       3     143     170    1012    0.00
    01/12/2017 18:20      88    47.0      9.32        50.5      53.0      50.2       1       5     132     131    1012    0.00
    01/12/2017 18:30      88    46.9      9.32        50.3      53.0      50.1       0       3     121     137    1012    0.00
    01/12/2017 18:40      88    46.9      9.32        50.3      53.0      50.1       0       2     114     138    1013    0.00
    01/12/2017 18:50      89    47.1      9.32        50.4      53.0      50.1       2       4     132     109    1013    0.00
    01/12/2017 19:00      89    47.1      9.32        50.4      53.0      50.1       1       4     136     156    1013    0.00
    01/12/2017 19:10      89    47.2      9.32        50.4      53.0      50.1       1       3     130     150    1013    0.00
    01/12/2017 19:20      89    47.3      9.32        50.4      53.0      50.1       0       2     121     104    1013    0.00
    01/12/2017 19:30      89    47.3      9.32        50.4      53.0      50.1       1       3     159     164    1013    0.00
    01/12/2017 19:40      89    47.4      9.32        50.5      53.0      50.1       2       4     198     191    1013    0.00
    01/12/2017 19:50      89    47.5      9.32        50.6      53.0      50.1       1       4     219     211    1013    0.00
    01/12/2017 20:00      87    46.0      9.32        49.5      53.0      48.5       3       6     290     289    1013    0.00
    01/12/2017 20:10      88    45.1      9.33        48.6      53.0      48.4       0       2     187     317    1013    0.01
    01/12/2017 20:20      88    45.5      9.34        48.9      53.0      48.4       3       8      32     252    1013    0.01
    01/12/2017 20:30      88    45.3      9.34        48.7      53.0      48.4       3       7     225     259    1013    0.00
    01/12/2017 20:40      88    45.1      9.34        48.5      53.0      48.2       0       1     312     340    1013    0.00
    01/12/2017 20:50      88    44.6      9.34        48.1      53.0      47.8       0       2     279     276    1013    0.00
    01/12/2017 21:00      88    44.5      9.34        47.9      53.0      47.6       0       1     334     331    1013    0.00
    01/12/2017 21:10      89    44.9      9.34        48.1      53.0      47.6       1       2       8      13    1013    0.00
    01/12/2017 21:20      89    45.0      9.34        48.1      53.0      47.6       0       2      23      28    1013    0.00
    01/12/2017 21:30      89    44.9      9.34        48.0      53.0      47.6       0       0     111     117    1013    0.00
    01/12/2017 21:40      89    44.6      9.34        47.7      53.0      47.5       0       1     352     352    1014    0.00
    01/12/2017 21:50      89    44.6      9.34        47.7      53.0      47.4       0       1       5     351    1014    0.00
    01/12/2017 22:00      89    44.5      9.34        47.4      53.0      47.2       0       2     340     340    1014    0.00
    01/12/2017 22:10      89    44.1      9.34        47.1      53.0      46.8       0       2     121     131    1014    0.00
    01/12/2017 22:20      90    43.9      9.34        46.8      53.0      46.6       0       0       0     154    1014    0.00
    01/12/2017 22:30      90    43.9      9.34        46.7      53.0      46.5       0       1     305     298    1014    0.00
    01/12/2017 22:40      90    43.7      9.34        46.5      53.0      46.4       0       1     300     298    1014    0.00
    01/12/2017 22:50      90    43.8      9.34        46.6      53.0      46.4       0       2     274     261    1014    0.00
    01/12/2017 23:00      90    43.9      9.34        46.6      53.0      46.4       0       1     312     324    1014    0.00
    01/12/2017 23:10      90    43.9      9.34        46.6      53.0      46.4       0       2     334       0    1014    0.00
    01/12/2017 23:20      90    43.9      9.34        46.5      53.0      46.2       0       0     290     303    1014    0.00
    01/12/2017 23:30      90    43.6      9.34        46.3      53.0      46.1       0       1     323     328    1014    0.00
    01/12/2017 23:40      90    43.5      9.34        46.2      53.0      45.9       0       2     297     296    1014    0.00
    01/12/2017 23:50      90    43.4      9.35        46.0      53.0      45.7       0       1      47      46    1014    0.01
    01/13/2017 00:00      90    43.1      9.35        45.8      53.0      45.5       0       1     281     282    1014    0.00
    01/13/2017 00:10      90    42.9      9.35        45.5      45.8      45.4       0       0      49      49    1014    0.00
    01/13/2017 00:20      91    42.8      9.35        45.5      45.8      45.2       0       1     291     283    1014    0.00
    01/13/2017 00:30      91    42.9      9.35        45.5      45.8      45.2       0       1     336     335    1014    0.00
    01/13/2017 00:40      91    42.6      9.35        45.2      45.8      44.9       0       0       0       0    1014    0.00
    01/13/2017 00:50      91    42.7      9.35        45.2      45.8      44.9       0       0      11       0    1014    0.00
    01/13/2017 01:00      91    42.1      9.35        44.7      45.8      44.2       0       0     146     146    1014    0.00
    01/13/2017 01:10      91    41.7      9.35        44.2      45.8      44.0       0       0       0     159    1014    0.00
    01/13/2017 01:20      91    41.6      9.35        44.1      45.8      43.9       0       0       0     161    1014    0.00
    01/13/2017 01:30      91    41.5      9.35        44.0      45.8      43.8       0       0     278     284    1014    0.00
    01/13/2017 01:40      91    41.4      9.35        43.9      45.8      43.7       0       0     276     282    1014    0.00
    01/13/2017 01:50      91    41.5      9.35        43.9      45.8      43.7       0       0     260     259    1014    0.00
    01/13/2017 02:00      91    41.7      9.35        44.1      45.8      43.7       0       0     294     293    1014    0.00
    01/13/2017 02:10      91    41.6      9.35        44.0      45.8      43.7       0       0     329     327    1014    0.00
    01/13/2017 02:20      91    41.6      9.35        44.1      45.8      43.7       0       0       0     332    1014    0.00
    01/13/2017 02:30      91    41.6      9.35        44.0      45.8      43.7       0       0     274     260    1014    0.00
    01/13/2017 02:40      91    41.6      9.35        44.0      45.8      43.7       0       1     324     344    1014    0.00
    01/13/2017 02:50      91    41.9      9.35        44.2      45.8      43.7       0       2     347     351    1014    0.00
    01/13/2017 03:00      91    41.7      9.35        44.1      45.8      43.7       0       1     303     298    1014    0.00
    01/13/2017 03:10      91    41.4      9.35        43.8      45.8      43.5       0       1     300     299    1014    0.00
    01/13/2017 03:20      91    41.5      9.35        43.9      45.8      43.5       0       0     327     327    1014    0.00
    01/13/2017 03:30      91    41.6      9.35        44.0      45.8      43.5       0       0       0     327    1014    0.00
    01/13/2017 03:40      91    41.5      9.35        43.9      45.8      43.5       0       2      46      50    1014    0.00
    01/13/2017 03:50      91    41.5      9.35        43.9      45.8      43.5       0       2      74      78    1014    0.00
    01/13/2017 04:00      91    40.9      9.35        43.3      45.8      43.0       0       1     137     141    1014    0.00
    01/13/2017 04:10      91    40.5      9.35        42.9      45.8      42.5       1       3     158     171    1014    0.00
    01/13/2017 04:20      91    40.3      9.35        42.7      45.8      42.4       1       2     165     177    1014    0.00
    01/13/2017 04:30      91    40.3      9.35        42.7      45.8      42.4       0       2     218     200    1014    0.00
    01/13/2017 04:40      91    40.5      9.35        42.9      45.8      42.4       0       3     257     286    1014    0.00
    01/13/2017 04:50      91    40.8      9.35        43.1      45.8      42.4       0       3     311     245    1014    0.00
    01/13/2017 05:00      91    40.8      9.35        43.1      45.8      42.4       1       3     346     346    1014    0.00
    01/13/2017 05:10      91    40.8      9.35        43.1      45.8      42.4       0       2     324     321    1014    0.00
    01/13/2017 05:20      91    40.3      9.35        42.6      45.8      42.3       1       2     275     282    1014    0.00
    01/13/2017 05:30      91    40.0      9.35        42.3      45.8      42.2       0       1     315     341    1014    0.00
    01/13/2017 05:40      91    40.0      9.35        42.3      45.8      42.0       0       0     287     337    1014    0.00
    01/13/2017 05:50      92    40.1      9.35        42.5      45.8      42.0       0       3      93      65    1014    0.00
    01/13/2017 06:00      92    40.5      9.35        42.8      45.8      42.0       1       4     106     152    1014    0.00
    01/13/2017 06:10      92    40.7      9.35        43.0      45.8      42.0       0       2      27      81    1014    0.00
    01/13/2017 06:20      92    40.7      9.35        43.0      45.8      42.0       0       2     308     349    1015    0.00
    01/13/2017 06:30      92    40.7      9.35        43.0      45.8      42.0       0       2     301     294    1015    0.00
    01/13/2017 06:40      92    40.6      9.35        42.9      45.8      42.0       2       3     335     346    1015    0.00
    01/13/2017 06:50      92    40.7      9.35        43.0      45.8      42.0       0       2      89     134    1015    0.00
    01/13/2017 07:00      92    40.9      9.35        43.2      45.8      42.0       1       2     106      97    1015    0.00
    01/13/2017 07:10      92    41.3      9.35        43.6      45.8      42.0       0       1      99     105    1015    0.00
    01/13/2017 07:20      92    41.3      9.35        43.6      45.8      42.0       0       2     158     159    1015    0.00
    01/13/2017 07:30      91    41.2      9.35        43.5      45.8      42.0       0       3     209     193    1015    0.00
    01/13/2017 07:40      92    41.4      9.35        43.7      45.8      42.0       1       3     107      96    1015    0.00
    01/13/2017 07:50      92    41.8      9.35        44.0      45.8      42.0       0       2     105     153    1015    0.00
    01/13/2017 08:00      92    41.9      9.35        44.2      45.8      42.0       0       1     225     188    1015    0.00
    01/13/2017 08:10      92    42.3      9.35        44.5      45.8      42.0       0       1     250     254    1015    0.00
    01/13/2017 08:20      92    43.0      9.35        45.3      45.8      42.0       0       2     232     254    1015    0.00
    01/13/2017 08:30      92    43.4      9.35        45.7      46.0      42.0       0       2     280     243    1015    0.00
    01/13/2017 08:40      92    44.1      9.35        46.4      46.9      42.0       0       1     262     246    1016    0.00
    01/13/2017 08:50      92    44.9      9.35        47.2      47.6      42.0       0       1     238     245    1016    0.00
    01/13/2017 09:00      91    45.2      9.35        47.6      48.0      42.0       0       2     219     188    1016    0.00
    01/13/2017 09:10      91    45.5      9.35        47.9      48.2      42.0       0       0     237     237    1016    0.00
    01/13/2017 09:20      91    45.4      9.35        47.8      48.3      42.0       0       1     236     245    1016    0.00
    01/13/2017 09:30      91    46.0      9.35        48.4      48.7      42.0       0       2     323     299    1016    0.00
    01/13/2017 09:40      90    45.5      9.35        48.2      48.8      42.0       1       6     308     334    1016    0.00
    01/13/2017 09:50      89    46.7      9.35        49.6      50.1      42.0       1       3     231     238    1016    0.00
    01/13/2017 10:00      83    46.7      9.35        50.6      51.5      42.0       0       2     298     228    1016    0.00
    01/13/2017 10:10      73    46.1      9.35        52.6      53.7      42.0       1       5     334     351    1016    0.00
    01/13/2017 10:20      62    43.0      9.35        53.9      54.3      42.0       3       7     345     354    1016    0.00
    01/13/2017 10:30      62    41.8      9.35        54.6      55.2      42.0       4       9       0     335    1016    0.00
    01/13/2017 10:40      59    41.6      9.35        55.4      55.8      42.0       4       8       4      14    1016    0.00
    01/13/2017 10:50      57    41.9      9.35        56.3      56.6      42.0       4      11     353     327    1016    0.00
    01/13/2017 11:00      55    40.8      9.35        56.4      56.6      42.0       5      10     340     339    1016    0.00
    01/13/2017 11:10      55    40.3      9.35        55.7      56.6      42.0       4       9     356      11    1015    0.00
    01/13/2017 11:20      54    40.6      9.35        56.5      57.0      42.0       4      12     343     348    1015    0.00
    01/13/2017 11:30      52    40.6      9.35        57.4      57.7      42.0       4      10     341       0    1015    0.00
    01/13/2017 11:40      54    40.0      9.35        57.0      57.9      42.0       4      11     330     335    1015    0.00
    01/13/2017 11:50      54    39.8      9.35        56.2      57.9      42.0       4      11     341     352    1015    0.00
    01/13/2017 12:00      54    39.9      9.35        56.0      57.9      42.0       3       7     341       0    1015    0.00
    01/13/2017 12:10      53    39.8      9.35        56.5      57.9      42.0       4      10     340     334    1014    0.00
    01/13/2017 12:20      54    39.7      9.35        56.6      57.9      42.0       4       9     336       9    1014    0.00
    01/13/2017 12:30      53    39.4      9.35        56.4      57.9      42.0       4      11     328     336    1014    0.00
    01/13/2017 12:40      54    39.5      9.35        56.1      57.9      42.0       4      10     320      58    1014    0.00
    01/13/2017 12:50      52    39.4      9.35        56.2      57.9      42.0       3      10     325     344    1014    0.00
    01/13/2017 13:00      53    39.4      9.35        56.5      57.9      42.0       4      10     327     322    1014    0.00
    01/13/2017 13:10      52    39.7      9.35        56.7      57.9      42.0       4       8     330     354    1014    0.00
    01/13/2017 13:20      54    40.7      9.35        57.3      58.4      42.0       3       7     326     313    1014    0.00
    01/13/2017 13:30      49    41.0      9.35        59.3      59.8      42.0       1       6     349      63    1014    0.00
    01/13/2017 13:40      51    40.2      9.35        58.4      59.8      42.0       4      11     344     324    1014    0.00
    01/13/2017 13:50      49    39.9      9.35        58.6      59.8      42.0       5      12     329     336    1014    0.00
    01/13/2017 14:00      48    39.6      9.35        59.5      60.4      42.0       4       8       1      57    1014    0.00
    01/13/2017 14:10      48    39.2      9.35        59.9      60.4      42.0       4      10       7     355    1014    0.00
    01/13/2017 14:20      49    39.4      9.35        58.1      60.4      42.0       3       9     348     347    1014    0.00
    01/13/2017 14:30      45    38.3      9.35        58.7      60.4      42.0       2       6      83      98    1014    0.00
    01/13/2017 14:40      45    38.0      9.35        59.7      60.4      42.0       3       6      83      83    1014    0.00
    01/13/2017 14:50      43    37.9      9.35        60.5      60.7      42.0       4      10      39     350    1014    0.00
    01/13/2017 15:00      44    37.3      9.35        60.2      60.8      42.0       6      10      29      64    1014    0.00
    01/13/2017 15:10      45    37.7      9.35        59.0      60.8      42.0       6      13      35      50    1014    0.00
    01/13/2017 15:20      46    37.6      9.35        58.4      60.8      42.0       5      10      34      43    1014    0.00
    01/13/2017 15:30      49    38.0      9.35        58.3      60.8      42.0       5      14      14     343    1014    0.00
    01/13/2017 15:40      52    38.7      9.35        56.9      60.8      42.0       9      17       2     349    1015    0.00
    01/13/2017 15:50      50    38.8      9.35        56.5      60.8      42.0       8      17     353     350    1015    0.00
    01/13/2017 16:00      50    38.4      9.35        56.8      60.8      42.0       6      14     357     329    1015    0.00
    01/13/2017 16:10      51    38.4      9.35        56.5      60.8      42.0       6      14       0       8    1015    0.00
    01/13/2017 16:20      51    38.3      9.35        55.9      60.8      42.0       6      13     354      24    1015    0.00
    01/13/2017 16:30      51    38.0      9.35        55.7      60.8      42.0       7      15     355      22    1015    0.00
    01/13/2017 16:40      52    38.2      9.35        55.6      60.8      42.0       6      13     353     355    1015    0.00
    01/13/2017 16:50      53    38.3      9.35        55.4      60.8      42.0       7      13     344     353    1015    0.00
    01/13/2017 17:00      54    38.4      9.35        55.1      60.8      42.0       6      17     344     353    1015    0.00
    01/13/2017 17:10      54    38.5      9.35        55.0      60.8      42.0       5      15     341     338    1015    0.00
    01/13/2017 17:20      55    38.5      9.35        54.9      60.8      42.0       7      14     343     347    1015    0.00
    01/13/2017 17:30      53    38.5      9.35        54.7      60.8      42.0       7      15     335     328    1015    0.00
    01/13/2017 17:40      53    38.0      9.35        54.9      60.8      42.0       7      21     352       2    1015    0.00
    01/13/2017 17:50      53    38.0      9.35        54.6      60.8      42.0       7      14     349       4    1015    0.00
    01/13/2017 18:00      52    37.3      9.35        54.4      60.8      42.0       6      14     350      -0    1015    0.00
    01/13/2017 18:10      53    37.2      9.35        54.2      60.8      42.0       6      17     345     354    1015    0.00
    01/13/2017 18:20      53    37.4      9.35        53.9      60.8      42.0       6      14     346     329    1015    0.00
    01/13/2017 18:30      53    37.1      9.35        53.9      60.8      42.0       8      16     346      22    1015    0.00
    01/13/2017 18:40      53    36.9      9.35        53.8      60.8      42.0       7      14     342       0    1015    0.00
    01/13/2017 18:50      52    36.7      9.35        53.8      60.8      42.0       6      14     344       9    1016    0.00
    01/13/2017 19:00      52    36.8      9.35        53.8      60.8      42.0       6      15     338     331    1015    0.00
    01/13/2017 19:10      53    37.0      9.35        53.9      60.8      42.0       8      15     344     333    1016    0.00
    01/13/2017 19:20      53    37.1      9.35        53.6      60.8      42.0       7      15     342     330    1016    0.00
    01/13/2017 19:30      55    37.2      9.35        53.4      60.8      42.0       6      14     341     333    1016    0.00
    01/13/2017 19:40      55    37.4      9.35        53.0      60.8      42.0       6      15     344     342    1016    0.00
    01/13/2017 19:50      55    37.1      9.35        53.0      60.8      42.0       7      16     350     346    1016    0.00
    01/13/2017 20:00      55    37.2      9.35        52.8      60.8      42.0       7      15     348     334    1016    0.00
    01/13/2017 20:10      55    37.0      9.35        52.7      60.8      42.0       7      14     350     345    1016    0.00
    01/13/2017 20:20      55    37.1      9.35        52.6      60.8      42.0       8      16     354      16    1016    0.00
    01/13/2017 20:30      56    37.4      9.35        52.6      60.8      42.0       8      14     357       8    1016    0.00
    01/13/2017 20:40      55    37.2      9.35        52.7      60.8      42.0       8      16     360      19    1016    0.00
    01/13/2017 20:50      56    37.5      9.35        52.8      60.8      42.0       7      14     350     351    1016    0.00
    01/13/2017 21:00      56    37.7      9.35        52.6      60.8      42.0       8      19     349       0    1016    0.00
    01/13/2017 21:10      57    37.7      9.35        52.8      60.8      42.0       9      21     349     354    1016    0.00
    01/13/2017 21:20      57    38.0      9.35        52.6      60.8      42.0       9      19     347     323    1016    0.00
    01/13/2017 21:30      57    37.8      9.35        52.8      60.8      42.0       8      17     357     330    1016    0.00
    01/13/2017 21:40      57    37.9      9.35        52.8      60.8      42.0       9      16     357     334    1016    0.00
    01/13/2017 21:50      56    38.0      9.35        52.9      60.8      42.0       7      16     354      23    1016    0.00
    01/13/2017 22:00      56    38.0      9.35        53.4      60.8      42.0       9      20     358     341    1017    0.00
    01/13/2017 22:10      57    38.3      9.35        53.2      60.8      42.0       7      18     353     346    1017    0.00
    01/13/2017 22:20      56    38.2      9.35        53.2      60.8      42.0       7      18     355     350    1017    0.00
    01/13/2017 22:30      55    38.0      9.35        53.5      60.8      42.0       6      13     353     333    1017    0.00
    01/13/2017 22:40      52    37.5      9.35        54.1      60.8      42.0       7      15     355      29    1017    0.00
    01/13/2017 22:50      49    37.0      9.35        54.9      60.8      42.0       8      16       0      12    1017    0.00
    01/13/2017 23:00      53    37.3      9.35        54.8      60.8      42.0       5      16     344     345    1017    0.00
    01/13/2017 23:10      54    37.6      9.35        54.1      60.8      42.0       6      15     342     350    1016    0.00
    01/13/2017 23:20      53    37.5      9.35        54.0      60.8      42.0       5      14     342      13    1016    0.00
    01/13/2017 23:30      52    37.3      9.35        54.1      60.8      42.0       5      11     335     333    1016    0.00
    01/13/2017 23:40      51    37.0      9.35        54.7      60.8      42.0       5      14     343       0    1016    0.00
    01/13/2017 23:50      53    37.3      9.35        54.5      60.8      42.0       5      13     340      17    1016    0.00
    01/14/2017 00:00      51    37.5      9.35        54.5      60.8      42.0       6      13     359       0    1016    0.00
    01/14/2017 00:10      50    37.2      9.35        55.3      55.8      54.7       7      15     353     343    1016    0.00
    01/14/2017 00:20      50    37.2      9.35        55.4      55.8      54.7       7      17     352     339    1016    0.00
    01/14/2017 00:30      51    37.4      9.35        55.4      55.8      54.7       7      17     347     348    1016    0.00
    01/14/2017 00:40      52    37.5      9.35        55.3      55.8      54.7       8      18     351       0    1016    0.00
    01/14/2017 00:50      52    37.8      9.35        54.9      55.8      54.6       8      19     353     347    1016    0.00
    01/14/2017 01:00      52    37.8      9.35        54.9      55.8      54.6       9      19     347     328    1016    0.00
    01/14/2017 01:10      52    37.8      9.35        54.8      55.8      54.6       6      14     347     348    1016    0.00
    01/14/2017 01:20      51    37.6      9.35        55.1      55.8      54.6       8      17     350     354    1016    0.00
    01/14/2017 01:30      51    37.5      9.35        55.3      55.8      54.6       8      17     344     335    1016    0.00
    01/14/2017 01:40      50    37.3      9.35        55.5      55.8      54.6       8      19     344       7    1017    0.00
    01/14/2017 01:50      49    37.2      9.35        55.6      55.8      54.6       7      18     340     319    1016    0.00
    01/14/2017 02:00      49    37.0      9.35        55.8      56.0      54.6       8      22     340     345    1017    0.00
    01/14/2017 02:10      51    37.1      9.35        55.2      56.0      54.6       7      17     344      17    1017    0.00
    01/14/2017 02:20      51    37.2      9.35        54.8      56.0      54.5       6      17     346     352    1016    0.00
    01/14/2017 02:30      51    37.1      9.35        54.8      56.0      54.5       6      17     348       8    1016    0.00
    01/14/2017 02:40      51    37.0      9.35        54.8      56.0      54.5       8      16     350      28    1016    0.00
    01/14/2017 02:50      50    37.0      9.35        54.9      56.0      54.5       8      20     347     348    1016    0.00
    01/14/2017 03:00      50    37.0      9.35        54.9      56.0      54.5       8      15     347     351    1016    0.00
    01/14/2017 03:10      50    36.7      9.35        55.0      56.0      54.5       7      13     347       8    1016    0.00
    01/14/2017 03:20      50    36.7      9.35        54.9      56.0      54.5       7      14     341     353    1016    0.00
    01/14/2017 03:30      48    36.4      9.35        55.0      56.0      54.5       7      14     341     355    1016    0.00
    01/14/2017 03:40      49    36.3      9.35        55.2      56.0      54.5       5      11     343     331    1016    0.00
    01/14/2017 03:50      48    36.2      9.35        55.0      56.0      54.5       5      13     343     354    1016    0.00
    01/14/2017 04:00      48    36.0      9.35        55.3      56.0      54.5       6      13     345     332    1016    0.00
    01/14/2017 04:10      46    35.6      9.35        55.7      56.0      54.5       7      16     344       2    1016    0.00
    01/14/2017 04:20      46    35.4      9.35        55.7      56.0      54.5       6      14     346     333    1016    0.00
    01/14/2017 04:30      45    35.1      9.35        55.9      56.3      54.5       8      17     348      10    1016    0.00
    01/14/2017 04:40      44    35.0      9.35        55.9      56.3      54.5       6      14     352     355    1016    0.00
    01/14/2017 04:50      44    34.7      9.35        56.1      56.3      54.5       7      15     350     354    1015    0.00
    01/14/2017 05:00      44    34.6      9.35        56.1      56.3      54.5       8      16     348     339    1015    0.00
    01/14/2017 05:10      44    34.5      9.35        56.0      56.3      54.5       6      14     350      22    1015    0.00
    01/14/2017 05:20      44    34.4      9.35        56.2      56.4      54.5       7      15     347       3    1015    0.00
    01/14/2017 05:30      44    34.3      9.35        56.1      56.4      54.5       6      13     352     352    1016    0.00
    01/14/2017 05:40      43    34.2      9.35        56.0      56.4      54.5       6      14     351     349    1016    0.00
    01/14/2017 05:50      42    33.9      9.35        56.2      56.5      54.5       7      17     351     355    1016    0.00
    01/14/2017 06:00      42    33.7      9.35        56.5      56.8      54.5       8      21     350       2    1016    0.00
    01/14/2017 06:10      42    33.6      9.35        56.5      56.8      54.5       8      16     348       4    1016    0.00
    01/14/2017 06:20      42    33.5      9.35        56.4      56.8      54.5       7      18     353     352    1016    0.00
    01/14/2017 06:30      41    33.4      9.35        56.6      56.8      54.5       8      19     348     337    1016    0.00
    01/14/2017 06:40      41    33.3      9.35        56.6      56.9      54.5       8      18     349       0    1016    0.00
    01/14/2017 06:50      41    33.2      9.35        56.6      56.9      54.5       7      20     348       1    1016    0.00
    01/14/2017 07:00      41    33.1      9.35        56.7      56.9      54.5      10      20     348       0    1016    0.00
    01/14/2017 07:10      41    33.2      9.35        56.7      56.9      54.5      10      17     346     316    1016    0.00
    01/14/2017 07:20      42    33.5      9.35        56.5      56.9      54.5       9      19     343     338    1016    0.00
    01/14/2017 07:30      42    33.7      9.35        56.4      56.9      54.5       8      17     345     353    1016    0.00
    01/14/2017 07:40      42    33.8      9.35        56.5      56.9      54.5       8      22     346     353    1016    0.00
    01/14/2017 07:50      41    33.8      9.35        56.8      57.0      54.5      10      20     344     331    1016    0.00
    01/14/2017 08:00      42    33.9      9.35        56.9      57.1      54.5       9      19     340     351    1016    0.00
    01/14/2017 08:10      42    34.0      9.35        57.0      57.3      54.5       9      19     342      15    1016    0.00
    01/14/2017 08:20      42    34.1      9.35        57.2      57.4      54.5       8      17     339     355    1016    0.00
    01/14/2017 08:30      41    34.0      9.35        57.6      57.9      54.5      10      21     342     335    1016    0.00
    01/14/2017 08:40      41    34.2      9.35        57.7      58.0      54.5       9      18     341     348    1016    0.00
    01/14/2017 08:50      39    34.0      9.35        58.3      58.7      54.5       8      20     345     339    1016    0.00
    01/14/2017 09:00      39    34.1      9.35        58.8      59.2      54.5       9      20     346     323    1016    0.00
    01/14/2017 09:10      37    33.8      9.35        59.4      59.8      54.5       8      22     341     342    1016    0.00
    01/14/2017 09:20      36    33.3      9.35        60.0      60.5      54.5       8      22     348       7    1016    0.00
    01/14/2017 09:30      35    33.3      9.35        60.9      61.3      54.5       8      20     344     344    1016    0.00
    01/14/2017 09:40      34    33.1      9.35        61.4      61.7      54.5       7      18     346      22    1016    0.00
    01/14/2017 09:50      33    32.9      9.35        61.8      62.2      54.5       9      18     351     347    1016    0.00
    01/14/2017 10:00      33    32.7      9.35        62.3      62.5      54.5      10      21     351     338    1016    0.00
    01/14/2017 10:10      33    32.8      9.35        62.5      62.9      54.5      10      23     345     304    1016    0.00
    01/14/2017 10:20      32    32.9      9.35        62.8      63.1      54.5      10      24     354     331    1016    0.00
    01/14/2017 10:30      32    32.6      9.35        63.0      63.4      54.5      12      25     349     348    1016    0.00
    01/14/2017 10:40      32    32.7      9.35        63.3      63.7      54.5      12      27     353       0    1016    0.00
    01/14/2017 10:50      30    32.5      9.35        63.7      64.1      54.5      12      27     350     339    1016    0.00
    01/14/2017 11:00      30    32.5      9.35        64.1      64.3      54.5       9      21     348      33    1016    0.00
    01/14/2017 11:10      30    32.1      9.35        64.2      64.7      54.5      13      30     352     350    1015    0.00
    01/14/2017 11:20      30    32.4      9.35        64.6      64.9      54.5      12      30     353     350    1015    0.00
    01/14/2017 11:30      30    32.4      9.35        64.6      64.9      54.5      13      23     349     317    1015    0.00
    01/14/2017 11:40      30    32.7      9.35        64.8      65.3      54.5      12      28     352      12    1015    0.00
    01/14/2017 11:50      30    32.6      9.35        64.9      65.3      54.5      14      27     353      35    1015    0.00
    01/14/2017 12:00      29    32.3      9.35        65.1      65.4      54.5      14      29     348     349    1015    0.00
    01/14/2017 12:10      29    32.3      9.35        65.1      65.4      54.5      14      29     347     332    1015    0.00
    01/14/2017 12:20      29    32.6      9.35        65.4      65.6      54.5      11      22     350     355    1015    0.00
    01/14/2017 12:30      30    32.1      9.35        65.1      65.6      54.5      13      29       3       3    1014    0.00
    01/14/2017 12:40      28    32.5      9.35        65.8      66.3      54.5      11      25     353     335    1014    0.00
    01/14/2017 12:50      28    32.2      9.35        66.0      66.5      54.5       9      26     353     355    1014    0.00
    01/14/2017 13:00      28    32.3      9.35        66.5      66.8      54.5       9      19     360      13    1014    0.00
    01/14/2017 13:10      28    32.2      9.35        66.3      66.8      54.5       9      26       2       0    1014    0.00
    01/14/2017 13:20      28    32.5      9.35        66.3      66.8      54.5       8      20     350       0    1014    0.00
    01/14/2017 13:30      30    33.2      9.35        66.8      67.2      54.5       6      16     340     349    1014    0.00
    01/14/2017 13:40      27    32.6      9.35        66.8      67.2      54.5       8      20     357       0    1015    0.00
    01/14/2017 13:50      28    33.1      9.35        67.0      67.7      54.5       6      16     354      16    1015    0.00
    01/14/2017 14:00      28    33.3      9.35        67.3      67.7      54.5       7      15     346     331    1015    0.00
    01/14/2017 14:10      27    33.0      9.35        67.4      67.7      54.5       7      17     344     348    1015    0.00
    01/14/2017 14:20      27    33.0      9.35        67.5      67.8      54.5       7      15     338     304    1015    0.00
    01/14/2017 14:30      28    33.0      9.35        67.7      68.1      54.5       4      10       5     339    1015    0.00
    01/14/2017 14:40      25    32.1      9.35        68.0      68.3      54.5       6      15     354     353    1015    0.00
    01/14/2017 14:50      27    31.1      9.35        67.6      68.3      54.5       8      18     352     352    1015    0.00
    01/14/2017 15:00      26    31.0      9.35        67.0      68.3      54.5       8      21     357     354    1015    0.00
    01/14/2017 15:10      27    31.2      9.35        66.8      68.3      54.5       8      15     354     324    1015    0.00
    01/14/2017 15:20      27    31.6      9.35        66.8      68.3      54.5       7      14      11      28    1015    0.00
    01/14/2017 15:30      27    31.7      9.35        66.7      68.3      54.5       5      12      23      72    1015    0.00
    01/14/2017 15:40      28    32.1      9.35        66.5      68.3      54.5       6      13      44      39    1015    0.00
    01/14/2017 15:50      28    32.8      9.35        66.4      68.3      54.5       4      11      27      46    1015    0.00
    01/14/2017 16:00      29    32.9      9.35        66.3      68.3      54.5       4      10     337     326    1015    0.00
    01/14/2017 16:10      29    32.8      9.35        66.1      68.3      54.5       3       9     342     351    1015    0.00
    01/14/2017 16:20      29    32.4      9.35        65.8      68.3      54.5       6      13     352     344    1015    0.00
    01/14/2017 16:30      30    32.7      9.35        65.4      68.3      54.5       5      12     351       2    1015    0.00
    01/14/2017 16:40      31    32.9      9.35        64.8      68.3      54.5       4      11     359     354    1014    0.00
    01/14/2017 16:50      32    33.3      9.35        64.4      68.3      54.5       3      10     348      36    1014    0.00
    01/14/2017 17:00      32    33.6      9.35        64.1      68.3      54.5       5      10     347     339    1014    0.00
    01/14/2017 17:10      34    33.8      9.35        63.5      68.3      54.5       4      11     319     330    1014    0.00
    01/14/2017 17:20      35    34.3      9.35        62.7      68.3      54.5       4       8     297     273    1014    0.00
    01/14/2017 17:30      37    34.9      9.35        61.6      68.3      54.5       4       7     293     282    1014    0.00
    01/14/2017 17:40      36    34.3      9.35        61.4      68.3      54.5       3       7     300     284    1014    0.00
    01/14/2017 17:50      35    33.9      9.35        61.5      68.3      54.5       3       8     299     282    1015    0.00
    01/14/2017 18:00      36    33.9      9.35        61.7      68.3      54.5       2       6     304     311    1015    0.00
    01/14/2017 18:10      36    34.1      9.35        61.2      68.3      54.5       0       5     292     239    1015    0.00
    01/14/2017 18:20      35    33.7      9.35        61.5      68.3      54.5       3       8     298     284    1015    0.00
    01/14/2017 18:30      35    33.7      9.35        61.1      68.3      54.5       2       8     317     332    1015    0.00
    01/14/2017 18:40      35    33.6      9.35        61.6      68.3      54.5       3       9     325     329    1015    0.00
    01/14/2017 18:50      36    33.7      9.35        61.5      68.3      54.5       2      10     315     348    1015    0.00
    01/14/2017 19:00      36    33.8      9.35        61.2      68.3      54.5       2       6     316     352    1015    0.00
    01/14/2017 19:10      37    33.8      9.35        60.8      68.3      54.5       2       7     331     332    1015    0.00
    01/14/2017 19:20      37    34.0      9.35        60.4      68.3      54.5       2       9     337     307    1015    0.00
    01/14/2017 19:30      39    34.5      9.35        60.4      68.3      54.5       2       7     318     341    1015    0.00
    01/14/2017 19:40      40    35.2      9.35        59.4      68.3      54.5       1       4     307       4    1015    0.00
    01/14/2017 19:50      41    35.4      9.35        59.1      68.3      54.5       2       4     300     288    1015    0.00
    01/14/2017 20:00      38    34.7      9.35        59.3      68.3      54.5       3       7     309     321    1015    0.00
    01/14/2017 20:10      38    34.0      9.35        59.9      68.3      54.5       2       7     321     337    1015    0.00
    01/14/2017 20:20      39    34.3      9.35        59.4      68.3      54.5       1       4     345     326    1015    0.00
    01/14/2017 20:30      39    34.4      9.35        58.9      68.3      54.5       2       5     327     327    1015    0.00
    01/14/2017 20:40      39    34.3      9.35        58.9      68.3      54.5       1       5     329       1    1015    0.00
    01/14/2017 20:50      40    34.3      9.35        58.8      68.3      54.5       0       3     329     337    1015    0.00
    01/14/2017 21:00      41    34.5      9.35        57.6      68.3      54.5       0       6     320     342    1015    0.00
    01/14/2017 21:10      38    33.3      9.35        58.3      68.3      54.5       2       5      13      10    1015    0.00
    01/14/2017 21:20      43    34.1      9.35        58.2      68.3      54.5       3       6      80      61    1015    0.00
    01/14/2017 21:30      44    35.1      9.35        57.1      68.3      54.5       4       7      47      55    1015    0.00
    01/14/2017 21:40      45    35.5      9.35        56.8      68.3      54.5       3       8     339       0    1015    0.00
    01/14/2017 21:50      44    35.6      9.35        57.0      68.3      54.5       2       9     326     322    1015    0.00
    01/14/2017 22:00      44    35.4      9.35        57.4      68.3      54.5       2       7     321     338    1015    0.00
    01/14/2017 22:10      44    35.3      9.35        57.2      68.3      54.5       1       5     333     316    1015    0.00
    01/14/2017 22:20      43    34.9      9.35        57.1      68.3      54.5       0       4     346     329    1015    0.00
    01/14/2017 22:30      42    34.6      9.35        57.6      68.3      54.5       2       5     349       0    1015    0.00
    01/14/2017 22:40      40    34.4      9.35        57.9      68.3      54.5       3       8     338     341    1015    0.00
    01/14/2017 22:50      40    34.2      9.35        58.6      68.3      54.5       4       9     340       0    1015    0.00
    01/14/2017 23:00      40    34.5      9.35        58.2      68.3      54.5       5      10     345       2    1015    0.00
    01/14/2017 23:10      40    34.4      9.35        58.5      68.3      54.5       5      10     351     335    1015    0.00
    01/14/2017 23:20      42    34.5      9.35        58.1      68.3      54.5       3       7     356       6    1014    0.00
    01/14/2017 23:30      43    34.7      9.35        57.3      68.3      54.5       3       7     357     341    1014    0.00
    01/14/2017 23:40      43    34.8      9.35        57.4      68.3      54.5       3       7     350     325    1014    0.00
    01/14/2017 23:50      42    34.7      9.35        57.6      68.3      54.5       3       6     335     337    1014    0.00
    01/15/2017 00:00      42    34.7      9.35        57.6      68.3      54.5       4       9     335     336    1014    0.00
    01/15/2017 00:10      40    34.5      9.35        57.8      58.5      57.4       3       9     324     321    1014    0.00
    01/15/2017 00:20      41    34.5      9.35        58.3      58.5      57.4       3       8     332     332    1015    0.00
    01/15/2017 00:30      41    34.7      9.35        57.8      58.5      57.4       2       7     319     322    1015    0.00
    01/15/2017 00:40      43    34.6      9.35        57.9      58.5      57.3       3       8      27     327    1015    0.00
    01/15/2017 00:50      47    35.1      9.35        56.2      58.5      55.3       2       6      71     102    1015    0.00
    01/15/2017 01:00      48    35.4      9.35        54.8      58.5      54.4       0       3      45      38    1015    0.00
    01/15/2017 01:10      50    35.6      9.35        54.3      58.5      54.0       2       4      78      84    1015    0.00
    01/15/2017 01:20      51    35.9      9.35        53.9      58.5      53.6       2       4      57      64    1015    0.00
    01/15/2017 01:30      52    35.9      9.35        53.6      58.5      53.2       2       5      68      47    1015    0.00
    01/15/2017 01:40      52    35.9      9.35        53.1      58.5      52.7       0       5      59      57    1015    0.00
    01/15/2017 01:50      52    35.9      9.35        53.0      58.5      52.7       3       5      63      57    1015    0.00
    01/15/2017 02:00      51    35.8      9.35        53.0      58.5      52.7       2       5      31     355    1015    0.00
    01/15/2017 02:10      52    35.5      9.35        53.4      58.5      52.6       2       6      57     348    1015    0.00
    01/15/2017 02:20      57    35.9      9.35        51.2      58.5      50.6       0       0       0     131    1015    0.00
    01/15/2017 02:30      60    36.6      9.35        50.2      58.5      49.9       0       3      85      82    1015    0.00
    01/15/2017 02:40      59    36.8      9.35        50.4      58.5      49.9       2       4      85      85    1015    0.00
    01/15/2017 02:50      61    36.7      9.35        50.1      58.5      49.5       0       0       0      89    1015    0.00
    01/15/2017 03:00      62    37.2      9.35        49.6      58.5      49.4       0       4      67      62    1015    0.00
    01/15/2017 03:10      66    36.6      9.35        48.1      58.5      47.5       0       0       0     352    1015    0.00
    01/15/2017 03:20      68    37.6      9.35        48.0      58.5      47.5       0       3      56      74    1015    0.00
    01/15/2017 03:30      68    38.8      9.35        48.8      58.5      47.5       0       3     325     284    1015    0.00
    01/15/2017 03:40      70    38.0      9.35        47.6      58.5      47.5       1       3     345     350    1015    0.00
    01/15/2017 03:50      69    39.0      9.35        48.5      58.5      47.5       0       3     356      17    1015    0.00
    01/15/2017 04:00      71    39.6      9.35        48.6      58.5      47.5       3       5      27      29    1015    0.00
    01/15/2017 04:10      71    40.8      9.35        49.7      58.5      47.5       3       6      29      45    1015    0.00
    01/15/2017 04:20      72    41.2      9.35        50.0      58.5      47.5       2       5      36      65    1015    0.00
    01/15/2017 04:30      73    41.2      9.35        49.7      58.5      47.5       1       4      49      36    1015    0.00
    01/15/2017 04:40      74    41.1      9.35        49.1      58.5      47.5       2       4      18       0    1015    0.00
    01/15/2017 04:50      75    40.6      9.35        48.5      58.5      47.5       0       2      40       3    1015    0.00
    01/15/2017 05:00      75    40.6      9.35        48.0      58.5      47.5       1       3      78      76    1015    0.00
    01/15/2017 05:10      78    39.6      9.35        46.7      58.5      46.1       0       0       0     100    1015    0.00
    01/15/2017 05:20      79    39.5      9.35        45.8      58.5      45.4       0       2     228     259    1015    0.00
    01/15/2017 05:30      81    39.7      9.35        45.4      58.5      45.2       0       2     216     227    1015    0.00
    01/15/2017 05:40      81    39.6      9.35        45.2      58.5      44.8       0       0       0     215    1015    0.00
    01/15/2017 05:50      83    39.6      9.35        45.0      58.5      44.6       0       2       6       6    1015    0.00
    01/15/2017 06:00      82    40.5      9.35        45.6      58.5      44.6       0       2     342     342    1015    0.00
    01/15/2017 06:10      82    41.0      9.35        46.2      58.5      44.6       1       2     341     332    1016    0.00
    01/15/2017 06:20      84    42.3      9.35        47.3      58.5      44.6       0       2     345     336    1016    0.00
    01/15/2017 06:30      86    43.9      9.35        48.2      58.5      44.6       1       3     338     342    1016    0.00
    01/15/2017 06:40      87    44.6      9.35        48.4      58.5      44.6       1       3     333     340    1016    0.00
    01/15/2017 06:50      88    44.9      9.35        48.4      58.5      44.6       2       4     329     320    1016    0.00
    01/15/2017 07:00      88    45.0      9.35        48.3      58.5      44.6       3       6     344     331    1016    0.00
    01/15/2017 07:10      89    45.4      9.35        48.6      58.5      44.6       2       4     351     351    1016    0.00
    01/15/2017 07:20      88    45.9      9.35        49.2      58.5      44.6       2       3     349       0    1016    0.00
    01/15/2017 07:30      88    46.4      9.35        49.8      58.5      44.6       0       3     359      15    1016    0.00
    01/15/2017 07:40      87    46.6      9.35        50.2      58.5      44.6       0       3      23      35    1017    0.00
    01/15/2017 07:50      87    46.8      9.35        50.4      58.5      44.6       2       4      41      59    1017    0.00
    01/15/2017 08:00      87    46.8      9.35        50.6      58.5      44.6       1       5      25       2    1017    0.00
    01/15/2017 08:10      86    47.0      9.35        50.9      58.5      44.6       2       4       5     340    1017    0.00
    01/15/2017 08:20      85    47.0      9.35        51.1      58.5      44.6       2       5       2     347    1017    0.00
    01/15/2017 08:30      84    47.0      9.35        51.4      58.5      44.6       1       3      29       6    1017    0.00
    01/15/2017 08:40      84    47.0      9.35        51.7      58.5      44.6       1       5      12     335    1017    0.00
    01/15/2017 08:50      82    47.0      9.35        52.0      58.5      44.6       2       4      12       0    1017    0.00
    01/15/2017 09:00      81    46.9      9.35        52.3      58.5      44.6       2       4      18      27    1017    0.00
    01/15/2017 09:10      79    46.5      9.35        52.6      58.5      44.6       2       6      40      41    1017    0.00
    01/15/2017 09:20      76    46.0      9.35        52.9      58.5      44.6       3       6      42       2    1017    0.00
    01/15/2017 09:30      75    45.6      9.35        53.1      58.5      44.6       3       5      53      57    1017    0.00
    01/15/2017 09:40      73    45.4      9.35        53.5      58.5      44.6       3       5      57      40    1017    0.00
    01/15/2017 09:50      74    45.6      9.35        53.9      58.5      44.6       3       6      80      50    1017    0.00
    01/15/2017 10:00      73    46.2      9.35        54.4      58.5      44.6       3       6      76      63    1018    0.00
    01/15/2017 10:10      73    46.5      9.35        54.7      58.5      44.6       2       7      88      77    1018    0.00
    01/15/2017 10:20      74    46.6      9.35        54.8      58.5      44.6       2       5     104     147    1018    0.00
    01/15/2017 10:30      72    46.9      9.35        55.3      58.5      44.6       2       4      91      73    1018    0.00
    01/15/2017 10:40      71    46.6      9.35        55.5      58.5      44.6       1       5      99      54    1018    0.00
    01/15/2017 10:50      69    46.3      9.35        55.9      58.5      44.6       2       5     106     138    1018    0.00
    01/15/2017 11:00      69    46.2      9.35        56.1      58.5      44.6       2       5     125     123    1018    0.00
    01/15/2017 11:10      70    46.4      9.35        56.3      58.5      44.6       2       6      83      93    1017    0.00
    01/15/2017 11:20      68    46.5      9.35        56.8      58.5      44.6       2       6     120     121    1017    0.00
    01/15/2017 11:30      68    46.3      9.35        56.9      58.5      44.6       3       6      83      94    1017    0.00
    01/15/2017 11:40      67    46.3      9.35        56.6      58.5      44.6       3       8      97      63    1017    0.00
    01/15/2017 11:50      67    46.1      9.35        56.8      58.5      44.6       2       5     104      92    1017    0.00
    01/15/2017 12:00      66    45.7      9.35        56.9      58.5      44.6       3       5     107      90    1017    0.00
    01/15/2017 12:10      65    45.6      9.35        57.2      58.5      44.6       2       6     103      88    1016    0.00
    01/15/2017 12:20      66    45.6      9.35        57.2      58.5      44.6       3       6      94      85    1016    0.00
    01/15/2017 12:30      65    45.9      9.35        57.3      58.5      44.6       3       6      73      56    1016    0.00
    01/15/2017 12:40      64    46.0      9.35        57.7      58.5      44.6       4       9      77      82    1016    0.00
    01/15/2017 12:50      63    45.8      9.35        58.0      58.6      44.6       3       6      97     108    1016    0.00
    01/15/2017 13:00      61    45.6      9.35        58.5      58.9      44.6       4       7      79      85    1016    0.00
    01/15/2017 13:10      60    45.5      9.35        59.0      59.2      44.6       3       7      81      93    1016    0.00
    01/15/2017 13:20      59    45.1      9.35        59.2      59.4      44.6       3       7      98      95    1015    0.00
    01/15/2017 13:30      59    45.1      9.35        59.5      59.9      44.6       3       8     113     140    1015    0.00
    01/15/2017 13:40      58    44.5      9.35        59.7      60.0      44.6       3       8      99     156    1015    0.00
    01/15/2017 13:50      57    44.6      9.35        59.7      60.2      44.6       4      10     117     138    1015    0.00
    01/15/2017 14:00      58    45.1      9.35        59.8      60.3      44.6       3       8     119     124    1015    0.00
    01/15/2017 14:10      59    45.1      9.35        60.0      60.4      44.6       3       7     117     156    1015    0.00
    01/15/2017 14:20      55    45.1      9.35        60.5      60.9      44.6       3       7     143     168    1015    0.00
    01/15/2017 14:30      57    44.6      9.35        60.3      60.9      44.6       4       9      67      89    1015    0.00
    01/15/2017 14:40      57    44.8      9.35        59.8      60.9      44.6       3       7     126     141    1015    0.00
    01/15/2017 14:50      56    44.9      9.35        60.1      60.9      44.6       2       6     109      89    1015    0.00
    01/15/2017 15:00      56    44.3      9.35        60.0      60.9      44.6       3       8     100     104    1015    0.00
    01/15/2017 15:10      53    45.0      9.35        61.0      61.7      44.6       3       6     117     155    1015    0.00
    01/15/2017 15:20      53    44.9      9.35        61.8      62.5      44.6       2       8     109      68    1015    0.00
    01/15/2017 15:30      56    45.1      9.35        61.8      62.5      44.6       4       8      97      92    1015    0.00
    01/15/2017 15:40      58    45.6      9.35        60.9      62.5      44.6       3       6     124     134    1015    0.00
    01/15/2017 15:50      59    46.1      9.35        60.5      62.5      44.6       3       8     104      86    1015    0.00
    01/15/2017 16:00      61    46.0      9.35        60.0      62.5      44.6       3       7      94      94    1015    0.00
    01/15/2017 16:10      63    46.3      9.35        59.3      62.5      44.6       3       6      98     101    1015    0.00
    01/15/2017 16:20      61    45.8      9.35        59.0      62.5      44.6       2       6     105      82    1015    0.00
    01/15/2017 16:30      64    46.0      9.35        58.7      62.5      44.6       2       5     115      92    1015    0.00
    01/15/2017 16:40      66    46.7      9.35        58.5      62.5      44.6       2       4     145     170    1015    0.00
    01/15/2017 16:50      66    47.0      9.35        58.3      62.5      44.6       3       7     141     128    1015    0.00
    01/15/2017 17:00      68    47.1      9.35        57.9      62.5      44.6       3       6     154     144    1015    0.00
    01/15/2017 17:10      69    47.0      9.35        57.5      62.5      44.6       4       8     149     145    1016    0.00
    01/15/2017 17:20      69    46.9      9.35        57.0      62.5      44.6       2       4     139     143    1016    0.00
    01/15/2017 17:30      71    46.8      9.35        56.4      62.5      44.6       3       5     144     154    1016    0.00
    01/15/2017 17:40      71    46.7      9.35        55.9      62.5      44.6       2       5     149     128    1016    0.00
    01/15/2017 17:50      73    46.6      9.35        55.4      62.5      44.6       0       2     110      84    1016    0.00
    01/15/2017 18:00      74    46.6      9.35        54.8      62.5      44.6       0       1      98     109    1016    0.00
    01/15/2017 18:10      76    46.6      9.35        54.4      62.5      44.6       0       2     108      97    1016    0.00
    01/15/2017 18:20      76    46.8      9.35        54.3      62.5      44.6       0       1      59     104    1016    0.00
    01/15/2017 18:30      76    46.8      9.35        54.1      62.5      44.6       0       0      58      72    1016    0.00
    01/15/2017 18:40      78    46.5      9.35        53.5      62.5      44.6       0       0      64      66    1016    0.00
    01/15/2017 18:50      79    46.4      9.35        53.0      62.5      44.6       0       1      60      61    1016    0.00
    01/15/2017 19:00      80    46.2      9.35        52.4      62.5      44.6       0       2      39      49    1017    0.00
    01/15/2017 19:10      82    46.8      9.35        52.4      62.5      44.6       0       1      35      31    1017    0.00
    01/15/2017 19:20      80    47.6      9.35        53.1      62.5      44.6       0       2      17      39    1017    0.00
    01/15/2017 19:30      80    47.3      9.35        53.2      62.5      44.6       0       0     341     339    1017    0.00
    01/15/2017 19:40      79    47.6      9.35        53.7      62.5      44.6       0       1     357      17    1017    0.00
    01/15/2017 19:50      78    47.6      9.35        54.0      62.5      44.6       1       2      21      28    1017    0.00
    01/15/2017 20:00      77    47.4      9.35        54.3      62.5      44.6       1       2      58      30    1017    0.00
    01/15/2017 20:10      77    47.1      9.35        54.3      62.5      44.6       0       1      76      59    1017    0.00
    01/15/2017 20:20      77    46.9      9.35        53.9      62.5      44.6       0       2      73      75    1017    0.00
    01/15/2017 20:30      79    47.0      9.35        53.6      62.5      44.6       0       0       0      77    1017    0.00
    01/15/2017 20:40      80    47.0      9.35        53.3      62.5      44.6       0       0       0      40    1017    0.00
    01/15/2017 20:50      79    47.0      9.35        53.1      62.5      44.6       0       0       0      40    1017    0.00
    01/15/2017 21:00      81    47.1      9.35        53.0      62.5      44.6       0       0       0     127    1017    0.00
    01/15/2017 21:10      81    47.4      9.35        53.1      62.5      44.6       0       2      30      52    1017    0.00
    01/15/2017 21:20      79    47.5      9.35        53.6      62.5      44.6       0       2      73      63    1017    0.00
    01/15/2017 21:30      78    47.3      9.35        53.8      62.5      44.6       0       1      88      94    1017    0.00
    01/15/2017 21:40      78    47.1      9.35        53.7      62.5      44.6       0       0      83      84    1017    0.00
    01/15/2017 21:50      78    47.0      9.35        53.6      62.5      44.6       0       1      71      72    1017    0.00
    01/15/2017 22:00      79    47.1      9.35        53.4      62.5      44.6       1       2      81      74    1017    0.00
    01/15/2017 22:10      79    47.1      9.35        53.5      62.5      44.6       0       2      60      59    1017    0.00
    01/15/2017 22:20      79    47.1      9.35        53.5      62.5      44.6       0       2      64      55    1017    0.00
    01/15/2017 22:30      79    46.9      9.35        53.2      62.5      44.6       0       1      19      26    1017    0.00
    01/15/2017 22:40      80    46.8      9.35        52.9      62.5      44.6       0       2       8       6    1017    0.00
    01/15/2017 22:50      81    46.8      9.35        52.7      62.5      44.6       1       2     359      19    1017    0.00
    01/15/2017 23:00      81    46.8      9.35        52.5      62.5      44.6       0       2      25      42    1017    0.00
    01/15/2017 23:10      82    46.8      9.35        52.3      62.5      44.6       0       2     358     351    1017    0.00
    01/15/2017 23:20      83    46.5      9.35        51.8      62.5      44.6       0       1       0      30    1017    0.00
    01/15/2017 23:30      83    46.3      9.35        51.4      62.5      44.6       0       2     341      -0    1017    0.00
    01/15/2017 23:40      84    46.4      9.35        51.1      62.5      44.6       1       2     355     350    1017    0.00
    01/15/2017 23:50      84    46.1      9.35        50.8      62.5      44.6       0       1     342      -0    1017    0.00
    01/16/2017 00:00      84    45.9      9.35        50.5      62.5      44.6       0       1     341     340    1017    0.00
    01/16/2017 00:10      85    45.9      9.35        50.4      50.5      50.2       1       2     346     349    1017    0.00
    01/16/2017 00:20      85    46.2      9.35        50.5      50.8      50.2       2       3     348     352    1017    0.00
    01/16/2017 00:30      85    46.4      9.35        50.8      51.0      50.2       0       2     355     353    1017    0.00
    01/16/2017 00:40      84    46.3      9.35        50.8      51.0      50.2       0       0      57      69    1017    0.00
    01/16/2017 00:50      85    45.9      9.35        50.4      51.0      50.1       0       0       0      60    1017    0.00
    01/16/2017 01:00      86    45.9      9.35        50.2      51.0      50.0       0       0       0      -0    1017    0.00
    01/16/2017 01:10      85    45.9      9.35        50.1      51.0      49.7       0       0       0       0    1017    0.00
    01/16/2017 01:20      86    45.3      9.35        49.5      51.0      49.0       0       1     125     126    1017    0.00
    01/16/2017 01:30      86    45.1      9.35        49.1      51.0      48.8       0       1     163     164    1017    0.00
    01/16/2017 01:40      87    45.0      9.35        48.8      51.0      48.5       0       0     159     159    1017    0.00
    01/16/2017 01:50      87    44.7      9.35        48.5      51.0      48.3       0       0       0     159    1017    0.00
    01/16/2017 02:00      87    44.6      9.35        48.2      51.0      47.7       0       0     261     257    1017    0.00
    01/16/2017 02:10      88    44.3      9.35        47.8      51.0      47.6       0       0       0     259    1017    0.00
    01/16/2017 02:20      88    44.3      9.35        47.7      51.0      47.4       0       1     331     331    1017    0.00
    01/16/2017 02:30      88    44.1      9.35        47.4      51.0      47.2       0       0     328     329    1016    0.00
    01/16/2017 02:40      89    44.5      9.35        47.7      51.0      47.2       0       2      42      38    1016    0.00
    01/16/2017 02:50      89    45.0      9.35        48.1      51.0      47.2       3       4      30      26    1016    0.00
    01/16/2017 03:00      88    44.9      9.35        48.1      51.0      47.2       0       3      50      41    1016    0.00
    01/16/2017 03:10      88    44.1      9.35        47.5      51.0      47.0       0       0     259     259    1016    0.00
    01/16/2017 03:20      88    43.6      9.35        47.0      51.0      46.7       0       0       0     261    1016    0.00
    01/16/2017 03:30      89    43.3      9.35        46.6      51.0      46.3       0       1     289     288    1016    0.00
    01/16/2017 03:40      89    43.4      9.35        46.6      51.0      46.3       1       2     309     327    1016    0.00
    01/16/2017 03:50      89    43.6      9.35        46.7      51.0      46.3       0       2     322     312    1016    0.00
    01/16/2017 04:00      89    43.4      9.35        46.5      51.0      46.0       0       0     339     339    1016    0.00
    01/16/2017 04:10      89    43.0      9.35        46.0      51.0      45.8       0       0     339     339    1016    0.00
    01/16/2017 04:20      89    43.2      9.35        46.1      51.0      45.8       0       1     345     351    1016    0.00
    01/16/2017 04:30      90    43.3      9.35        46.2      51.0      45.8       0       2     338     342    1016    0.00
    01/16/2017 04:40      89    42.8      9.35        45.7      51.0      45.1       0       0     309     296    1016    0.00
    01/16/2017 04:50      90    42.2      9.35        45.1      51.0      45.0       0       0     317     317    1016    0.00
    01/16/2017 05:00      90    42.1      9.35        45.0      51.0      44.8       0       1      77      80    1016    0.00
    01/16/2017 05:10      90    42.7      9.35        45.5      51.0      44.8       2       3      38      42    1016    0.00
    01/16/2017 05:20      90    43.4      9.35        46.2      51.0      44.8       2       3      21      19    1016    0.00
    01/16/2017 05:30      90    43.2      9.35        46.0      51.0      44.8       0       2      29      36    1016    0.00
    01/16/2017 05:40      90    43.1      9.35        45.9      51.0      44.8       0       3      61      43    1016    0.00
    01/16/2017 05:50      90    42.5      9.35        45.4      51.0      44.8       0       1      58      60    1016    0.00
    01/16/2017 06:00      90    41.8      9.35        44.7      51.0      44.3       0       2     297     286    1016    0.00
    01/16/2017 06:10      90    42.1      9.35        44.8      51.0      44.3       0       2     334     354    1016    0.00
    01/16/2017 06:20      90    40.8      9.35        43.7      51.0      43.1       0       0     325     340    1016    0.00
    01/16/2017 06:30      90    40.8      9.35        43.6      51.0      43.1       1       2     209     192    1017    0.00
    01/16/2017 06:40      90    40.9      9.35        43.6      51.0      43.1       2       3     256     255    1017    0.00
    01/16/2017 06:50      90    40.8      9.35        43.5      51.0      43.1       0       3     280     282    1017    0.00
    01/16/2017 07:00      91    41.2      9.35        43.8      51.0      43.1       0       1     309     310    1017    0.00
    01/16/2017 07:10      90    41.4      9.35        44.0      51.0      43.1       0       0     310     298    1017    0.00
    01/16/2017 07:20      91    40.5      9.35        43.2      51.0      42.8       0       3     134      97    1017    0.00
    01/16/2017 07:30      91    41.3      9.35        43.9      51.0      42.8       1       3      94      88    1017    0.00
    01/16/2017 07:40      91    41.5      9.35        44.1      51.0      42.8       2       3      87      78    1017    0.00
    01/16/2017 07:50      91    41.9      9.35        44.5      51.0      42.8       0       1      82      86    1017    0.00
    01/16/2017 08:00      91    43.0      9.35        45.5      51.0      42.8       0       2     100      89    1018    0.00
    01/16/2017 08:10      91    43.5      9.35        46.1      51.0      42.8       0       2     121     152    1018    0.00
    01/16/2017 08:20      91    44.2      9.35        46.7      51.0      42.8       0       1     223     202    1018    0.00
    01/16/2017 08:30      91    44.7      9.35        47.3      51.0      42.8       0       2     277     292    1018    0.00
    01/16/2017 08:40      91    46.4      9.35        48.9      51.0      42.8       2       3     265     251    1018    0.00
    01/16/2017 08:50      90    47.5      9.35        50.2      51.0      42.8       1       2     233     227    1018    0.00
    01/16/2017 09:00      89    47.4      9.35        50.4      51.0      42.8       0       3     188     237    1018    0.00
    01/16/2017 09:10      85    46.9      9.35        50.7      51.2      42.8       0       2     319     341    1018    0.00
    01/16/2017 09:20      80    46.8      9.35        51.6      52.3      42.8       2       4     153     177    1018    0.00
    01/16/2017 09:30      72    46.3      9.35        53.5      54.6      42.8       0       2      13     295    1018    0.00
    01/16/2017 09:40      69    45.7      9.35        55.0      55.4      42.8       0       3      89      79    1018    0.00
    01/16/2017 09:50      67    45.0      9.35        55.6      56.0      42.8       0       3     338      32    1018    0.00
    01/16/2017 10:00      66    44.5      9.35        55.3      56.0      42.8       1       3     311     283    1018    0.00
    01/16/2017 10:10      66    44.0      9.35        55.3      56.0      42.8       2       4     295     334    1018    0.00
    01/16/2017 10:20      65    44.6      9.35        55.9      56.6      42.8       2       3     261     301    1018    0.00
    01/16/2017 10:30      62    45.0      9.35        57.1      58.5      42.8       1       4     195     175    1018    0.00
    01/16/2017 10:40      59    44.5      9.35        58.4      59.2      42.8       2       5     118      59    1018    0.00
    01/16/2017 10:50      59    43.8      9.35        58.5      59.2      42.8       1       5     189     196    1018    0.00
    01/16/2017 11:00      58    44.3      9.35        58.5      59.3      42.8       2       3     211     241    1018    0.00
    01/16/2017 11:10      56    44.6      9.35        59.7      60.8      42.8       0       2     139     201    1018    0.00
    01/16/2017 11:20      56    44.6      9.35        60.3      60.9      42.8       2       6     177     168    1018    0.00
    01/16/2017 11:30      54    43.9      9.35        60.5      61.2      42.8       0       3     224     241    1017    0.00